Time;durP1;ratioP1;P1;durP2;ratioP2;P2;SDS_P1;SDS_P2;PMS_P1;PMS_P2;Temp;Humidity;BMP_temperature;BMP_pressure;BME280_temperature;BME280_humidity;BME280_pressure;Samples;Min_cycle;Max_cycle;Signal;HPM_P1;HPM_P2
2021/05/12 05:01:15;;;;;;;2.05;1.00;;;;;;;22.05;39.80;94249.50;5484821;24;20056;-72
2021/05/12 05:03:42;;;;;;;1.70;1.00;;;;;;;22.81;37.66;94243.59;4709441;30;20503;-73
2021/05/12 05:06:08;;;;;;;2.53;1.00;;;;;;;23.06;35.86;94246.22;4731690;30;20118;-71
2021/05/12 05:08:33;;;;;;;2.25;1.00;;;;;;;22.52;37.04;94244.06;4713878;30;20463;-72
2021/05/12 05:10:59;;;;;;;1.95;1.10;;;;;;;22.96;35.25;94236.44;4715448;30;20106;-72
2021/05/12 05:13:24;;;;;;;1.73;0.82;;;;;;;23.30;35.29;94234.06;4730123;30;20489;-72
2021/05/12 05:15:50;;;;;;;1.35;0.85;;;;;;;23.71;35.61;94231.34;4700915;30;20063;-72
2021/05/12 05:18:15;;;;;;;3.10;1.17;;;;;;;23.63;35.05;94231.91;4700264;30;20033;-72
2021/05/12 05:20:41;;;;;;;1.60;1.10;;;;;;;25.55;32.93;94229.66;4699691;30;20016;-73
2021/05/12 05:23:06;;;;;;;2.03;1.27;;;;;;;24.45;34.25;94218.84;4700321;30;20043;-72
2021/05/12 05:25:32;;;;;;;2.25;1.27;;;;;;;26.14;31.51;94223.09;4699012;30;20032;-73
2021/05/12 05:27:58;;;;;;;1.58;1.00;;;;;;;23.79;34.33;94222.84;4700699;30;20098;-72
2021/05/12 05:30:24;;;;;;;1.42;1.27;;;;;;;24.76;33.68;94215.97;4713610;30;20418;-71
2021/05/12 05:32:49;;;;;;;2.28;1.00;;;;;;;24.69;32.83;94223.44;4700795;30;20481;-72
2021/05/12 05:35:15;;;;;;;1.98;1.00;;;;;;;23.33;33.59;94222.94;4714098;30;20441;-73
2021/05/12 05:37:40;;;;;;;4.60;1.00;;;;;;;21.53;38.47;94219.69;4700427;30;20102;-72
2021/05/12 05:40:08;;;;;;;0.80;0.80;;;;;;;23.03;36.20;94222.97;4714906;30;20037;-73
2021/05/12 05:42:33;;;;;;;4.20;1.00;;;;;;;26.42;30.32;94214.28;4699428;30;20034;-72
2021/05/12 05:44:59;;;;;;;1.38;0.77;;;;;;;26.87;30.35;94212.03;4700286;30;20109;-72
2021/05/12 05:47:26;;;;;;;2.72;0.90;;;;;;;26.22;29.97;94206.56;4729382;30;20068;-72
2021/05/12 05:49:51;;;;;;;3.65;0.90;;;;;;;26.77;31.14;94201.53;4715008;30;20778;-72
2021/05/12 05:52:17;;;;;;;2.38;1.05;;;;;;;25.14;33.14;94196.59;4698929;30;20032;-72
2021/05/12 05:54:42;;;;;;;1.20;1.00;;;;;;;26.41;31.74;94196.75;4714861;30;20499;-73
2021/05/12 05:57:14;;;;;;;1.02;0.90;;;;;;;24.96;34.39;94189.34;4729779;30;20044;-71
2021/05/12 05:59:39;;;;;;;2.58;1.10;;;;;;;27.42;30.06;94197.75;4729686;30;20032;-71
2021/05/12 06:02:06;;;;;;;1.15;0.98;;;;;;;23.09;34.08;94211.34;4700166;30;20062;-73
2021/05/12 06:04:31;;;;;;;3.38;1.17;;;;;;;26.85;30.81;94214.97;4698590;30;20464;-72
2021/05/12 06:06:57;;;;;;;0.73;0.70;;;;;;;28.40;28.54;94201.72;4699632;30;20120;-72
2021/05/12 06:09:23;;;;;;;2.90;0.95;;;;;;;24.77;33.07;94194.50;4712551;30;20048;-72
2021/05/12 06:11:49;;;;;;;2.00;1.10;;;;;;;25.71;31.89;94179.06;4713662;30;20036;-71
2021/05/12 06:14:14;;;;;;;4.72;0.90;;;;;;;22.41;36.36;94184.38;4712856;30;20075;-71
2021/05/12 06:16:40;;;;;;;2.22;1.00;;;;;;;24.23;33.80;94181.38;4714004;30;20526;-71
2021/05/12 06:19:05;;;;;;;2.85;1.00;;;;;;;25.20;33.15;94184.88;4713527;30;20944;-71
2021/05/12 06:21:31;;;;;;;2.05;0.95;;;;;;;28.07;29.67;94171.00;4713598;30;20033;-71
2021/05/12 06:23:56;;;;;;;0.70;0.70;;;;;;;28.19;29.69;94165.97;4700156;30;20037;-71
2021/05/12 06:26:23;;;;;;;2.78;1.00;;;;;;;27.89;29.72;94164.69;4712627;30;20432;-72
2021/05/12 06:28:48;;;;;;;2.67;0.90;;;;;;;24.05;35.31;94155.50;4714207;30;20037;-72
2021/05/12 06:31:13;;;;;;;1.83;0.80;;;;;;;23.38;36.68;94158.69;4729721;30;20043;-71
2021/05/12 06:33:41;;;;;;;3.33;1.00;;;;;;;22.22;39.16;94156.91;4713482;30;20041;-72
2021/05/12 06:36:06;;;;;;;0.70;0.70;;;;;;;21.29;40.24;94157.91;4729586;30;20025;-72
2021/05/12 06:38:32;;;;;;;1.00;0.77;;;;;;;21.95;39.12;94145.78;4698730;30;20480;-72
2021/05/12 06:40:58;;;;;;;1.02;0.80;;;;;;;21.91;37.87;94142.88;4696203;30;20064;-72
2021/05/12 06:43:23;;;;;;;1.42;0.75;;;;;;;26.53;31.96;94145.81;4694879;30;20025;-72
2021/05/12 06:45:49;;;;;;;2.35;0.90;;;;;;;29.35;27.63;94146.41;4698745;30;20056;-71
2021/05/12 06:48:14;;;;;;;2.70;0.80;;;;;;;27.28;29.56;94142.97;4712194;30;20040;-71
2021/05/12 06:50:40;;;;;;;2.35;0.80;;;;;;;28.24;28.12;94134.66;4697155;30;20034;-71
2021/05/12 06:53:05;;;;;;;0.85;0.80;;;;;;;27.37;30.09;94119.91;4695411;30;20434;-71
2021/05/12 06:55:31;;;;;;;0.85;0.70;;;;;;;29.03;28.11;94120.78;4696813;30;20041;-70
2021/05/12 06:57:56;;;;;;;0.68;0.68;;;;;;;26.65;31.63;94125.69;4699251;30;20042;-71
2021/05/12 07:00:22;;;;;;;1.45;0.80;;;;;;;25.89;33.09;94111.94;4729426;30;20060;-71
2021/05/12 07:02:47;;;;;;;1.33;0.80;;;;;;;20.24;42.43;94114.78;4699619;30;20056;-71
2021/05/12 07:05:15;;;;;;;1.65;0.90;;;;;;;22.53;39.20;94123.41;4712594;30;20033;-71
2021/05/12 07:07:43;;;;;;;2.25;0.60;;;;;;;22.63;39.49;94115.50;4714168;30;20040;-71
2021/05/12 07:10:09;;;;;;;1.70;0.88;;;;;;;22.67;39.24;94107.88;4698159;30;20119;-71
2021/05/12 07:12:35;;;;;;;2.33;0.75;;;;;;;21.88;39.98;94105.66;4699615;30;20127;-71
2021/05/12 07:15:02;;;;;;;2.95;0.80;;;;;;;21.95;39.63;94109.66;4713329;30;20037;-71
2021/05/12 07:17:28;;;;;;;3.47;1.10;;;;;;;22.15;40.62;94103.63;4713437;30;20493;-70
2021/05/12 07:19:54;;;;;;;3.05;0.70;;;;;;;20.59;41.92;94092.44;4730231;30;20412;-71
2021/05/12 07:22:19;;;;;;;1.85;0.82;;;;;;;22.92;39.02;94105.97;4712482;30;20031;-71
2021/05/12 07:24:45;;;;;;;2.45;0.90;;;;;;;23.22;38.50;94093.72;4699433;30;20094;-71
2021/05/12 07:27:11;;;;;;;2.53;1.20;;;;;;;23.70;37.45;94111.50;4713627;30;20044;-71
2021/05/12 07:29:37;;;;;;;1.45;0.88;;;;;;;23.93;38.35;94107.41;4717726;30;20028;-70
2021/05/12 07:32:02;;;;;;;3.22;0.80;;;;;;;23.85;39.55;94097.44;4701395;30;20036;-71
2021/05/12 07:34:28;;;;;;;2.42;0.80;;;;;;;22.87;38.20;94097.25;4717073;30;20037;-70
2021/05/12 07:36:53;;;;;;;1.85;0.88;;;;;;;22.98;39.18;94098.81;4716951;30;20036;-71
2021/05/12 07:39:19;;;;;;;1.15;0.93;;;;;;;21.70;40.64;94085.06;4715812;30;20607;-70
2021/05/12 07:41:45;;;;;;;1.85;1.00;;;;;;;22.16;40.65;94076.16;4701940;30;20037;-71
2021/05/12 07:44:10;;;;;;;3.65;0.77;;;;;;;21.88;41.57;94087.19;4715512;30;20098;-70
2021/05/12 07:46:36;;;;;;;4.00;0.75;;;;;;;21.87;41.16;94085.59;4716873;30;20479;-71
2021/05/12 07:49:01;;;;;;;2.35;1.00;;;;;;;24.06;38.68;94075.84;4715270;30;20037;-70
2021/05/12 07:51:27;;;;;;;3.33;0.95;;;;;;;23.88;37.83;94070.41;4717516;30;20025;-70
2021/05/12 07:53:53;;;;;;;1.25;0.90;;;;;;;23.69;40.12;94069.47;4716046;30;20048;-71
2021/05/12 07:56:19;;;;;;;1.65;0.80;;;;;;;23.75;39.38;94073.69;4716091;30;20415;-71
2021/05/12 07:58:45;;;;;;;2.38;0.82;;;;;;;24.48;37.29;94053.28;4732618;30;20044;-71
2021/05/12 08:01:22;;;;;;;1.27;0.95;;;;;;;23.16;39.38;94057.78;4700616;30;20500;-71
2021/05/12 08:03:47;;;;;;;2.83;0.80;;;;;;;24.37;38.39;94052.59;4718398;30;20035;-71
2021/05/12 08:06:13;;;;;;;1.38;0.80;;;;;;;23.46;38.79;94045.28;4730852;30;20028;-71
2021/05/12 08:08:39;;;;;;;1.10;0.80;;;;;;;24.93;38.31;94046.78;4717178;30;20036;-71
2021/05/12 08:11:07;;;;;;;1.70;0.82;;;;;;;24.33;36.93;94033.06;4715802;30;20036;-71
2021/05/12 08:13:33;;;;;;;1.58;0.90;;;;;;;23.28;40.55;94032.63;4701636;30;20043;-71
2021/05/12 08:15:59;;;;;;;2.15;0.70;;;;;;;23.34;39.98;94028.91;4732645;30;20040;-71
2021/05/12 08:18:24;;;;;;;1.33;0.88;;;;;;;22.88;39.85;94028.31;4700263;30;20032;-71
2021/05/12 08:20:55;;;;;;;3.15;0.82;;;;;;;22.76;39.88;94021.75;4732747;30;20078;-71
2021/05/12 08:23:21;;;;;;;3.97;0.88;;;;;;;23.39;39.87;94015.66;4730575;30;20056;-71
2021/05/12 08:25:46;;;;;;;2.90;0.70;;;;;;;23.51;40.24;94016.16;4731963;30;20045;-71
2021/05/12 08:28:12;;;;;;;0.80;0.70;;;;;;;23.66;40.01;94011.84;4730310;30;20445;-70
2021/05/12 08:30:39;;;;;;;2.75;1.00;;;;;;;23.06;40.48;94011.06;4716242;30;20168;-70
2021/05/12 08:33:05;;;;;;;2.38;0.90;;;;;;;24.86;37.37;94014.53;4716046;30;20059;-71
2021/05/12 08:35:30;;;;;;;1.90;0.80;;;;;;;23.68;38.48;94015.00;4715252;30;21033;-70
2021/05/12 08:37:56;;;;;;;2.40;0.90;;;;;;;24.38;39.81;94017.09;4731835;30;20032;-70
2021/05/12 08:40:21;;;;;;;1.20;0.70;;;;;;;24.92;37.10;94011.53;4714447;30;20041;-71
2021/05/12 08:42:50;;;;;;;1.33;0.80;;;;;;;24.25;39.06;94009.03;4716307;30;20495;-70
2021/05/12 08:45:17;;;;;;;1.25;0.65;;;;;;;24.83;40.26;94020.38;4700419;30;20072;-71
2021/05/12 08:47:54;;;;;;;2.13;0.85;;;;;;;24.21;39.56;94018.59;4702077;30;20029;-71
2021/05/12 08:50:19;;;;;;;2.30;0.95;;;;;;;25.07;40.04;94007.94;4731449;30;20037;-71
2021/05/12 08:52:45;;;;;;;3.05;0.80;;;;;;;25.66;38.08;94010.88;4714864;30;20098;-71
2021/05/12 08:55:10;;;;;;;2.53;0.88;;;;;;;23.72;38.61;94010.75;4715447;30;20048;-70
2021/05/12 08:57:36;;;;;;;1.48;1.00;;;;;;;24.86;37.39;94009.22;4699673;30;20040;-70
2021/05/12 09:00:02;;;;;;;3.38;1.00;;;;;;;25.06;39.05;94009.78;4731639;30;20037;-71
2021/05/12 09:02:27;;;;;;;2.65;1.02;;;;;;;23.99;38.77;94003.13;4710823;30;20478;-70
2021/05/12 09:04:53;;;;;;;2.38;1.30;;;;;;;23.85;39.19;93997.69;4713225;30;20091;-71
2021/05/12 09:07:18;;;;;;;3.35;1.35;;;;;;;23.33;39.89;93998.25;4713838;30;20041;-72
2021/05/12 09:09:44;;;;;;;2.67;1.20;;;;;;;23.69;40.00;93987.50;4700482;30;20435;-72
2021/05/12 09:12:12;;;;;;;2.42;1.10;;;;;;;24.36;39.48;93990.13;4700896;30;20036;-71
2021/05/12 09:14:40;;;;;;;4.00;1.10;;;;;;;23.51;39.39;93987.06;4729672;30;20037;-71
2021/05/12 09:17:05;;;;;;;2.50;0.98;;;;;;;25.18;41.64;93994.25;4731386;30;20051;-71
2021/05/12 09:19:31;;;;;;;0.93;0.90;;;;;;;25.57;38.07;93986.06;4730034;30;20032;-72
2021/05/12 09:22:01;;;;;;;4.63;1.15;;;;;;;25.30;39.61;93979.81;4715526;30;20051;-70
2021/05/12 09:24:32;;;;;;;1.67;1.00;;;;;;;26.02;38.07;93979.28;4699622;30;20028;-71
2021/05/12 09:26:59;;;;;;;1.58;0.70;;;;;;;25.96;38.36;93979.63;4730511;30;20039;-70
2021/05/12 09:29:29;;;;;;;1.10;1.00;;;;;;;24.48;38.42;93982.59;4715212;30;20120;-70
2021/05/12 09:32:02;;;;;;;3.42;0.88;;;;;;;23.46;40.03;93967.81;4713506;30;20046;-72
2021/05/12 09:34:27;;;;;;;1.50;1.00;;;;;;;25.10;39.41;93972.91;4699478;30;20044;-71
2021/05/12 09:36:53;;;;;;;2.63;1.20;;;;;;;24.03;41.18;93980.34;4728873;30;20028;-72
2021/05/12 09:39:18;;;;;;;1.63;0.90;;;;;;;24.84;39.53;93974.28;4714814;30;20040;-72
2021/05/12 09:41:43;;;;;;;0.70;0.70;;;;;;;25.46;38.45;93981.94;4729002;30;20032;-72
2021/05/12 09:44:10;;;;;;;2.33;0.80;;;;;;;24.70;37.92;93966.19;4729010;30;20024;-72
2021/05/12 09:46:40;;;;;;;1.38;1.00;;;;;;;24.70;39.64;93973.34;4685138;30;20032;-71
2021/05/12 09:49:09;;;;;;;0.95;0.90;;;;;;;25.08;39.21;93969.72;4712379;30;20032;-71
2021/05/12 09:51:45;;;;;;;3.53;1.60;;;;;;;24.69;39.89;93967.28;4726767;30;20028;-72
2021/05/12 09:54:19;;;;;;;1.42;1.05;;;;;;;24.78;37.75;93968.22;4682833;30;20048;-71
2021/05/12 09:56:50;;;;;;;1.40;0.77;;;;;;;24.36;39.70;93968.16;4699225;30;20064;-72
2021/05/12 09:59:27;;;;;;;1.65;0.85;;;;;;;24.89;39.29;93971.56;4698864;30;20037;-71
2021/05/12 10:01:59;;;;;;;4.18;0.75;;;;;;;25.60;38.23;93972.22;4698366;30;20136;-71
2021/05/12 10:04:34;;;;;;;2.40;0.80;;;;;;;25.59;39.91;93978.59;4700021;30;20033;-71
2021/05/12 10:07:01;;;;;;;1.40;0.80;;;;;;;25.65;38.53;93966.84;4713801;30;20121;-72
2021/05/12 10:09:28;;;;;;;6.30;1.15;;;;;;;24.36;40.00;93963.66;4700356;30;20051;-71
2021/05/12 10:12:01;;;;;;;1.60;0.80;;;;;;;24.59;40.08;93968.16;4713144;30;20075;-68
2021/05/12 10:14:26;;;;;;;1.42;1.10;;;;;;;25.38;38.50;93972.00;4714553;30;20076;-71
2021/05/12 10:16:52;;;;;;;4.07;1.08;;;;;;;24.62;39.13;93966.81;4714295;30;20044;-70
2021/05/12 10:19:18;;;;;;;4.45;0.90;;;;;;;24.78;38.18;93959.50;4729265;30;20072;-70
2021/05/12 10:21:43;;;;;;;6.05;1.33;;;;;;;24.67;37.93;93956.16;4699424;30;20048;-68
2021/05/12 10:24:09;;;;;;;9.05;1.83;;;;;;;23.58;39.23;93949.75;4726716;30;20487;-70
2021/05/12 10:26:34;;;;;;;5.13;1.20;;;;;;;24.33;38.67;93945.69;4713542;30;20173;-71
2021/05/12 10:28:59;;;;;;;2.05;1.20;;;;;;;24.44;39.15;93943.69;4696192;30;20032;-71
2021/05/12 10:31:26;;;;;;;3.50;1.40;;;;;;;24.58;38.87;93942.75;4699193;30;20037;-71
2021/05/12 10:33:52;;;;;;;5.78;1.00;;;;;;;25.20;38.82;93945.47;4712731;30;20033;-70
2021/05/12 10:36:19;;;;;;;6.82;1.48;;;;;;;24.30;40.18;93937.50;4729425;30;20392;-71
2021/05/12 10:38:48;;;;;;;2.85;1.20;;;;;;;24.65;39.75;93942.41;4714412;30;20040;-70
2021/05/12 10:41:39;;;;;;;1.98;1.00;;;;;;;24.26;39.82;93950.50;4697504;30;20106;-71
2021/05/12 10:44:15;;;;;;;2.50;1.20;;;;;;;23.72;40.48;93941.97;4730125;30;20040;-70
2021/05/12 10:47:04;;;;;;;2.25;1.30;;;;;;;23.31;41.52;93949.38;4713985;30;20033;-70
2021/05/12 10:49:29;;;;;;;5.33;1.47;;;;;;;23.77;40.73;93949.84;4713921;30;20040;-70
2021/05/12 10:51:55;;;;;;;2.03;1.42;;;;;;;23.54;40.81;93944.22;4730677;30;20585;-70
2021/05/12 10:54:45;;;;;;;7.07;1.48;;;;;;;23.18;40.85;93937.56;4710279;30;20454;-70
2021/05/12 10:57:31;;;;;;;6.57;1.30;;;;;;;23.22;40.93;93930.66;4731684;30;20488;-70
2021/05/12 10:59:57;;;;;;;2.00;1.40;;;;;;;23.62;41.42;93929.63;4729858;30;20565;-69
2021/05/12 11:02:52;;;;;;;1.35;1.25;;;;;;;22.92;41.48;93925.56;4702710;30;20136;-70
2021/05/12 11:05:18;;;;;;;7.70;1.50;;;;;;;22.89;41.73;93923.47;4733372;30;20102;-70
2021/05/12 11:08:10;;;;;;;3.30;1.40;;;;;;;22.51;41.72;93927.53;4714906;30;20127;-70
2021/05/12 11:10:58;;;;;;;5.38;1.27;;;;;;;22.65;42.58;93917.19;4698836;30;20051;-70
2021/05/12 11:13:28;;;;;;;13.05;1.80;;;;;;;22.36;42.66;93922.31;4716345;30;20029;-70
2021/05/12 11:15:54;;;;;;;;;;;;;;;22.76;42.83;93929.34;4716369;30;20037;-71
2021/05/12 11:18:38;;;;;;;6.03;1.60;;;;;;;22.78;43.03;93917.44;4733363;30;19980;-71
2021/05/12 11:24:18;;;;;;;3.90;1.13;;;;;;;22.43;43.14;93914.91;4732722;30;20106;-70
2021/05/12 11:32:05;;;;;;;11.98;1.75;;;;;;;22.38;44.49;93913.06;4719042;30;20599;-70
2021/05/12 11:34:30;;;;;;;3.63;1.10;;;;;;;22.26;44.80;93915.22;4701877;30;20040;-69
2021/05/12 11:37:10;;;;;;;24.90;1.85;;;;;;;21.98;44.94;93921.88;4686898;30;20040;-70
2021/05/12 11:39:36;;;;;;;1.70;1.40;;;;;;;21.99;45.59;93915.53;4715021;30;20059;-70
2021/05/12 11:42:01;;;;;;;2.83;1.30;;;;;;;21.95;46.13;93914.50;4715058;30;20033;-71
2021/05/12 11:44:27;;;;;;;6.75;1.23;;;;;;;21.95;46.83;93918.97;4701994;30;20037;-71
2021/05/12 11:46:52;;;;;;;2.58;1.00;;;;;;;21.68;47.53;93907.88;4714292;30;20036;-70
2021/05/12 11:49:20;;;;;;;7.15;1.40;;;;;;;21.25;50.94;93920.56;4715654;30;20114;-71
2021/05/12 11:51:46;;;;;;;8.60;1.67;;;;;;;20.95;50.74;93913.34;4716042;30;20416;-68
2021/05/12 11:54:15;;;;;;;7.80;1.63;;;;;;;20.78;52.91;93915.41;4700662;30;20033;-68
2021/05/12 11:56:42;;;;;;;2.10;1.15;;;;;;;20.89;51.66;93903.88;4716504;30;20645;-71
2021/05/12 11:59:08;;;;;;;13.93;1.70;;;;;;;20.81;52.27;93906.97;4714843;30;20128;-68
2021/05/12 12:01:38;;;;;;;2.78;1.33;;;;;;;20.83;54.03;93912.00;4713684;30;20049;-71
2021/05/12 12:06:48;;;;;;;3.63;1.30;;;;;;;21.33;51.90;93906.03;4713077;30;20479;-71
2021/05/12 12:09:14;;;;;;;2.92;1.30;;;;;;;21.31;50.82;93903.69;4713228;30;20038;-70
2021/05/12 12:11:40;;;;;;;3.83;1.20;;;;;;;21.71;50.41;93904.72;4697920;30;20122;-71
2021/05/12 12:14:06;;;;;;;8.35;2.78;;;;;;;21.68;48.73;93900.78;4681673;30;20040;-70
2021/05/12 12:16:35;;;;;;;23.45;14.88;;;;;;;21.37;47.67;93896.56;4694772;30;20039;-71
2021/05/12 12:19:30;;;;;;;9.45;8.55;;;;;;;21.30;47.78;93906.56;4686185;30;20033;-71
2021/05/12 12:21:55;;;;;;;20.80;12.60;;;;;;;21.13;47.36;93896.28;4693424;30;20425;-73
2021/05/12 12:24:26;;;;;;;10.25;5.45;;;;;;;21.02;46.95;93897.31;4712296;30;20044;-72
2021/05/12 12:26:53;;;;;;;7.38;4.80;;;;;;;21.47;45.84;93889.47;4713325;30;20111;-75
2021/05/12 12:29:29;;;;;;;2.85;2.05;;;;;;;21.70;47.67;93896.03;4711225;30;20033;-75
2021/05/12 12:32:01;;;;;;;2.60;1.20;;;;;;;21.91;48.59;93887.06;4685294;30;20048;-74
2021/05/12 12:34:30;;;;;;;1.20;1.10;;;;;;;22.00;47.99;93882.81;4711825;30;20049;-76
2021/05/12 12:37:18;;;;;;;3.80;1.27;;;;;;;21.48;47.27;93882.34;4712431;30;20119;-76
2021/05/12 12:40:02;;;;;;;2.15;0.98;;;;;;;21.20;48.33;93881.00;4713743;30;20041;-77
2021/05/12 12:42:39;;;;;;;1.88;1.08;;;;;;;20.79;49.19;93871.44;4712404;30;20527;-73
2021/05/12 12:45:31;;;;;;;2.92;1.20;;;;;;;20.55;48.88;93876.38;4699596;30;20037;-75
2021/05/12 12:47:58;;;;;;;1.85;1.42;;;;;;;20.26;48.71;93870.75;4713762;30;20521;-78
2021/05/12 12:50:24;;;;;;;2.85;1.20;;;;;;;20.15;49.23;93863.84;4711217;30;20098;-74
2021/05/12 12:52:50;;;;;;;2.13;1.40;;;;;;;19.72;49.28;93851.78;4713016;30;20041;-72
2021/05/12 12:55:30;;;;;;;6.32;1.70;;;;;;;19.77;49.88;93856.28;4711244;30;20068;-78
2021/05/12 12:58:03;;;;;;;3.90;1.95;;;;;;;19.28;52.43;93868.78;4712205;30;20033;-76
2021/05/12 13:00:39;;;;;;;7.35;1.85;;;;;;;18.84;55.05;93866.31;4705814;30;20503;-73
2021/05/12 13:03:07;;;;;;;11.15;2.10;;;;;;;18.36;59.15;93877.59;4697582;30;20073;-74
2021/05/12 13:05:37;;;;;;;8.38;2.55;;;;;;;17.37;65.77;93887.19;4712222;30;20686;-77
2021/05/12 13:08:25;;;;;;;86.45;5.43;;;;;;;16.61;71.35;93892.19;4705490;30;20041;-76
2021/05/12 13:10:51;;;;;;;88.88;6.10;;;;;;;16.27;73.69;93904.31;4712919;30;20044;-78
2021/05/12 13:13:27;;;;;;;48.45;5.93;;;;;;;16.00;76.50;93918.91;4695796;30;20040;-76
2021/05/12 13:15:56;;;;;;;11.52;4.55;;;;;;;16.03;76.15;93932.28;4712137;30;20087;-77
2021/05/12 13:18:29;;;;;;;7.85;4.18;;;;;;;16.06;79.16;93941.47;4683732;30;20052;-73
2021/05/12 13:20:55;;;;;;;8.40;4.85;;;;;;;15.81;82.36;93946.97;4696650;30;20453;-71
2021/05/12 13:23:25;;;;;;;14.40;6.32;;;;;;;15.62;82.01;93953.31;4712086;30;20033;-74
2021/05/12 14:17:42;;;;;;;6.05;3.47;;;;;;;15.72;82.14;93911.78;5105300;27;20394;-74
2021/05/12 14:20:08;;;;;;;189.52;9.32;;;;;;;15.64;80.40;93909.50;5105104;28;20497;-71
2021/05/12 14:22:34;;;;;;;37.15;4.60;;;;;;;16.08;79.35;93906.28;5120116;27;20023;-74
2021/05/12 14:24:59;;;;;;;5.90;3.17;;;;;;;16.33;79.24;93913.84;5087250;28;20511;-74
2021/05/12 14:27:25;;;;;;;4.50;4.05;;;;;;;16.09;78.26;93910.47;5085641;28;20020;-72
2021/05/12 14:29:53;;;;;;;8.43;3.90;;;;;;;16.11;77.79;93903.22;5104033;28;20027;-72
2021/05/12 14:32:18;;;;;;;5.22;3.70;;;;;;;16.00;79.08;93913.69;5102659;28;20032;-72
2021/05/12 14:34:44;;;;;;;5.03;3.30;;;;;;;16.26;79.52;93915.78;5103931;28;20020;-73
2021/05/12 14:37:09;;;;;;;14.18;3.58;;;;;;;15.87;80.64;93900.84;5104301;28;20020;-72
2021/05/12 14:39:36;;;;;;;3.95;3.35;;;;;;;16.02;79.17;93901.19;5103458;28;20036;-76
2021/05/12 14:42:06;;;;;;;3.40;3.10;;;;;;;16.08;77.64;93892.44;5103879;28;20024;-75
2021/05/12 14:44:32;;;;;;;3.97;2.65;;;;;;;16.50;76.46;93901.66;5135302;27;20061;-74
2021/05/12 14:46:58;;;;;;;4.28;3.20;;;;;;;16.80;77.67;93893.56;5092259;28;20036;-74
2021/05/12 14:49:24;;;;;;;7.65;3.45;;;;;;;16.76;77.12;93888.00;5093016;28;20031;-74
2021/05/12 14:54:39;;;;;;;3.70;3.00;;;;;;;16.40;77.71;93895.41;5085720;28;20463;-73
2021/05/12 15:07:40;;;;;;;2.72;2.40;;;;;;;16.69;75.65;93881.34;5081514;28;20100;-74
2021/05/12 15:10:06;;;;;;;3.05;2.70;;;;;;;16.57;76.73;93891.84;5061052;28;20532;-75
2021/05/12 15:12:31;;;;;;;4.75;3.22;;;;;;;16.43;78.16;93900.97;5051026;28;20013;-75
2021/05/12 15:14:58;;;;;;;9.73;3.28;;;;;;;16.51;69.23;93884.91;5082103;28;20111;-75
2021/05/12 15:17:24;;;;;;;12.35;4.55;;;;;;;16.58;71.84;93888.22;5059361;28;20072;-75
2021/05/12 15:19:49;;;;;;;16.15;6.43;;;;;;;16.80;68.64;93875.25;5066181;28;20061;-75
2021/05/12 15:22:15;;;;;;;6.85;3.33;;;;;;;17.05;70.76;93894.00;5066285;28;20048;-75
2021/05/12 15:24:41;;;;;;;3.60;3.10;;;;;;;17.19;75.21;93900.53;5062199;28;20029;-75
2021/05/12 15:27:07;;;;;;;5.43;2.15;;;;;;;17.25;65.43;93890.94;5048637;28;20036;-75
2021/05/12 15:29:32;;;;;;;5.68;2.05;;;;;;;17.23;64.84;93895.63;5065014;28;20029;-75
2021/05/12 15:31:57;;;;;;;4.25;2.67;;;;;;;17.47;67.07;93888.38;5070565;28;20024;-72
2021/05/12 15:34:23;;;;;;;4.22;3.05;;;;;;;17.16;65.91;93866.97;5085110;28;20032;-71
2021/05/12 15:36:49;;;;;;;10.35;2.92;;;;;;;17.55;68.59;93862.63;5053942;28;20025;-71
2021/05/12 15:39:14;;;;;;;7.55;2.85;;;;;;;17.88;66.39;93861.78;5065079;28;20025;-71
2021/05/12 15:41:40;;;;;;;4.55;2.25;;;;;;;17.69;68.56;93844.75;5079594;28;20075;-72
2021/05/12 15:44:05;;;;;;;40.47;4.50;;;;;;;17.67;65.64;93846.81;5064447;28;20519;-71
2021/05/12 15:46:31;;;;;;;7.32;3.20;;;;;;;17.90;64.12;93846.59;5065300;28;20047;-71
2021/05/12 15:48:56;;;;;;;16.20;4.32;;;;;;;18.25;65.10;93847.03;5063927;28;20028;-71
2021/05/12 15:51:22;;;;;;;29.17;9.45;;;;;;;18.07;66.91;93842.13;5064669;28;20029;-71
2021/05/12 15:53:47;;;;;;;7.72;2.30;;;;;;;17.97;65.45;93841.19;5068573;28;20554;-71
2021/05/12 15:56:14;;;;;;;3.17;1.70;;;;;;;17.79;65.69;93832.56;5069384;28;20443;-71
2021/05/12 15:58:39;;;;;;;1.95;1.80;;;;;;;17.96;62.96;93829.91;5093709;28;20029;-71
2021/05/12 16:01:05;;;;;;;5.10;1.92;;;;;;;18.19;65.08;93818.38;5047165;28;20467;-71
2021/05/12 16:03:31;;;;;;;6.82;1.90;;;;;;;17.38;63.04;93818.13;5063291;28;20025;-70
2021/05/12 16:05:57;;;;;;;2.78;1.92;;;;;;;17.63;65.42;93824.75;5062986;28;20553;-71
2021/05/12 16:08:22;;;;;;;3.00;1.80;;;;;;;17.44;65.47;93826.81;5048047;28;20074;-71
2021/05/12 16:10:51;;;;;;;3.38;2.00;;;;;;;17.13;68.35;93825.59;5058852;28;20016;-71
2021/05/12 16:13:17;;;;;;;3.00;1.90;;;;;;;17.01;68.91;93832.75;5056086;28;20029;-71
2021/05/12 16:15:49;;;;;;;26.35;2.22;;;;;;;16.90;68.64;93835.41;5064656;28;20124;-71
2021/05/12 16:18:15;;;;;;;2.33;1.80;;;;;;;17.01;69.03;93843.19;5062941;28;20505;-71
2021/05/12 16:20:40;;;;;;;2.83;1.75;;;;;;;17.11;68.62;93853.03;5047251;28;20037;-71
2021/05/12 16:23:06;;;;;;;3.60;1.55;;;;;;;17.00;68.24;93851.28;5047720;28;20855;-71
2021/05/12 16:25:31;;;;;;;2.38;1.73;;;;;;;16.60;68.93;93851.41;5046874;28;20025;-71
2021/05/12 16:27:57;;;;;;;1.90;1.70;;;;;;;16.41;65.85;93845.50;5028903;28;20036;-70
2021/05/12 16:30:22;;;;;;;3.55;1.80;;;;;;;16.28;68.24;93832.72;5050638;28;20487;-73
2021/05/12 16:32:50;;;;;;;7.80;2.25;;;;;;;16.20;67.77;93833.91;5058228;28;20955;-71
2021/05/12 16:35:16;;;;;;;76.30;4.57;;;;;;;16.10;69.36;93841.53;5061747;28;20094;-71
2021/05/12 16:37:41;;;;;;;4.25;2.28;;;;;;;15.99;71.04;93842.34;5078831;28;20548;-71
2021/05/12 16:40:08;;;;;;;3.85;2.15;;;;;;;15.98;70.54;93848.63;5053581;28;20028;-71
2021/05/12 16:42:34;;;;;;;4.07;1.65;;;;;;;15.89;68.48;93855.22;5077573;28;20029;-73
2021/05/12 16:44:59;;;;;;;2.55;1.60;;;;;;;15.81;70.20;93845.13;5063526;28;20024;-73
2021/05/12 16:47:25;;;;;;;3.33;1.88;;;;;;;15.65;69.99;93854.47;5061619;28;20048;-71
2021/05/12 16:49:50;;;;;;;4.30;1.90;;;;;;;15.63;69.59;93850.50;5061186;28;20025;-71
2021/05/12 16:52:18;;;;;;;17.52;3.33;;;;;;;15.53;72.02;93845.84;5078892;28;20559;-71
2021/05/12 16:54:44;;;;;;;2.83;2.10;;;;;;;15.49;70.87;93852.53;5047149;28;20036;-71
2021/05/12 16:57:10;;;;;;;3.20;1.92;;;;;;;15.32;71.64;93849.78;5079555;28;20024;-74
2021/05/12 16:59:35;;;;;;;8.93;2.75;;;;;;;15.19;72.44;93849.22;5049228;28;20025;-74
2021/05/12 17:02:01;;;;;;;2.22;2.00;;;;;;;15.06;72.69;93852.81;5061804;28;20086;-71
2021/05/12 17:04:26;;;;;;;2.38;2.15;;;;;;;14.95;73.75;93853.63;5050386;28;20032;-73
2021/05/12 17:06:52;;;;;;;2.63;2.40;;;;;;;14.91;73.99;93860.28;5068987;28;20025;-73
2021/05/12 17:09:19;;;;;;;3.35;3.10;;;;;;;14.53;78.51;93852.03;5068946;28;20114;-73
2021/05/12 17:12:01;;;;;;;5.72;2.53;;;;;;;14.89;73.37;93851.91;5072361;28;20017;-71
2021/05/12 17:14:27;;;;;;;21.42;3.42;;;;;;;15.09;71.85;93862.81;5091755;28;20135;-72
2021/05/12 17:16:52;;;;;;;6.43;2.55;;;;;;;14.91;73.40;93859.50;5050582;28;20077;-71
2021/05/12 17:19:18;;;;;;;2.67;2.28;;;;;;;15.06;71.50;93859.84;5055918;28;20402;-72
2021/05/12 17:21:43;;;;;;;3.75;2.53;;;;;;;14.92;72.81;93858.47;5059997;28;20024;-72
2021/05/12 17:24:09;;;;;;;30.45;2.92;;;;;;;14.73;74.08;93857.78;5064104;28;20029;-71
2021/05/12 17:26:34;;;;;;;12.10;3.13;;;;;;;14.80;72.58;93862.88;5035920;28;20025;-71
2021/05/12 17:29:01;;;;;;;13.27;2.55;;;;;;;14.83;72.86;93876.28;5065187;28;20028;-71
2021/05/12 17:31:26;;;;;;;4.55;2.80;;;;;;;14.84;72.05;93880.44;5066601;28;20522;-71
2021/05/12 17:33:52;;;;;;;5.03;2.50;;;;;;;14.84;72.29;93884.88;5064874;28;20030;-72
2021/05/12 17:36:17;;;;;;;4.38;2.50;;;;;;;14.75;73.15;93889.59;5065971;28;20065;-74
2021/05/12 17:38:43;;;;;;;3.17;2.65;;;;;;;14.77;73.18;93890.16;5066845;28;20028;-71
2021/05/12 17:41:08;;;;;;;3.42;2.80;;;;;;;14.76;73.23;93891.22;5064082;28;20457;-74
2021/05/12 17:43:33;;;;;;;3.50;2.95;;;;;;;14.70;73.33;93910.34;5065069;28;20097;-74
2021/05/12 17:45:59;;;;;;;3.05;2.85;;;;;;;14.65;73.46;93907.59;5064556;28;20059;-74
2021/05/12 17:48:24;;;;;;;9.43;3.50;;;;;;;14.71;72.70;93912.72;5065118;28;20121;-74
2021/05/12 17:50:50;;;;;;;2.80;2.60;;;;;;;14.70;72.88;93915.56;5065083;28;20457;-71